Time;durP1;ratioP1;P1;durP2;ratioP2;P2;SDS_P1;SDS_P2;PMS_P1;PMS_P2;Temp;Humidity;BMP_temperature;BMP_pressure;BME280_temperature;BME280_humidity;BME280_pressure;Samples;Min_cycle;Max_cycle;Signal;HPM_P1;HPM_P2
2022/01/12 00:00:52;;;;;;;9.82;6.35;;;1.20;99.90;;;;;;4999861;28;20211;-57
2022/01/12 00:03:18;;;;;;;7.00;6.30;;;1.30;99.90;;;;;;5011450;28;20249;-58
2022/01/12 00:05:44;;;;;;;8.00;6.53;;;0.90;99.90;;;;;;5010564;28;20505;-58
2022/01/12 00:08:10;;;;;;;8.67;6.67;;;1.10;99.90;;;;;;5015155;28;20270;-58
2022/01/12 00:10:36;;;;;;;8.07;6.33;;;1.00;99.90;;;;;;4999226;28;20871;-58
2022/01/12 00:13:01;;;;;;;5.93;5.43;;;0.80;99.90;;;;;;4997130;28;20473;-57
2022/01/12 00:15:27;;;;;;;7.50;6.57;;;1.00;99.90;;;;;;5000535;28;20187;-58
2022/01/12 00:17:54;;;;;;;8.33;5.97;;;1.00;99.90;;;;;;5012103;28;20178;-57
2022/01/12 00:20:19;;;;;;;7.03;5.72;;;1.10;99.90;;;;;;5004363;28;20203;-57
2022/01/12 00:22:45;;;;;;;9.07;6.23;;;0.80;99.90;;;;;;5002267;28;20220;-57
2022/01/12 00:33:14;;;;;;;8.15;6.05;;;0.80;99.90;;;;;;5012937;28;20254;-57
2022/01/12 00:35:46;;;;;;;7.35;6.32;;;0.60;99.90;;;;;;5004593;28;20183;-57
2022/01/12 00:38:13;;;;;;;8.32;6.47;;;0.80;99.90;;;;;;5004747;28;20176;-58
2022/01/12 00:40:50;;;;;;;7.20;6.40;;;0.70;99.90;;;;;;5003018;28;20635;-58
2022/01/12 00:43:18;;;;;;;7.45;6.07;;;0.70;99.90;;;;;;5006322;28;20182;-58
2022/01/12 00:45:45;;;;;;;8.27;7.00;;;1.00;99.90;;;;;;5005871;28;20659;-57
2022/01/12 00:48:12;;;;;;;8.88;6.47;;;0.90;99.90;;;;;;5007837;28;20191;-58
2022/01/12 00:50:38;;;;;;;8.10;6.38;;;0.90;99.90;;;;;;5017994;28;20242;-58
2022/01/12 00:53:04;;;;;;;8.77;6.28;;;0.90;99.90;;;;;;5004825;28;20204;-59
2022/01/12 00:55:31;;;;;;;8.15;6.38;;;0.80;99.90;;;;;;5001467;28;20182;-57
2022/01/12 00:57:58;;;;;;;6.38;5.75;;;0.90;99.90;;;;;;5009670;28;20231;-57
2022/01/12 01:00:26;;;;;;;7.63;6.35;;;0.90;99.90;;;;;;5001588;28;20258;-57
2022/01/12 01:02:54;;;;;;;9.77;7.35;;;0.90;99.90;;;;;;5002503;28;20188;-57
2022/01/12 01:05:24;;;;;;;8.25;6.30;;;0.70;99.90;;;;;;5012827;28;20711;-58
2022/01/12 01:07:51;;;;;;;8.65;7.03;;;0.80;99.90;;;;;;5000012;28;20262;-57
2022/01/12 01:10:45;;;;;;;9.75;6.30;;;0.60;99.90;;;;;;5012951;28;20233;-57
2022/01/12 01:13:05;;;;;;;6.50;5.18;;;0.00;99.90;;;;;;5006712;28;20226;-58
2022/01/12 01:27:03;;;;;;;8.35;6.07;;;0.40;99.90;;;;;;4992986;28;20204;-58
2022/01/12 01:29:29;;;;;;;7.38;6.10;;;0.50;99.90;;;;;;4988105;28;20215;-57
2022/01/12 01:31:54;;;;;;;8.53;6.33;;;0.30;99.90;;;;;;4999284;28;20575;-57
2022/01/12 01:34:20;;;;;;;8.03;5.80;;;0.50;99.90;;;;;;5004956;28;20994;-57
2022/01/12 01:36:51;;;;;;;7.20;5.60;;;0.50;99.90;;;;;;5003169;28;20659;-57
2022/01/12 01:39:20;;;;;;;6.50;5.78;;;0.40;99.90;;;;;;5005472;28;20475;-58
2022/01/12 01:42:01;;;;;;;9.13;6.10;;;0.30;99.90;;;;;;5013692;28;20195;-58
2022/01/12 01:55:12;;;;;;;10.02;7.38;;;0.20;99.90;;;;;;5004374;28;20206;-60
2022/01/12 01:57:38;;;;;;;10.80;6.75;;;0.20;99.90;;;;;;5010514;28;20317;-60
2022/01/12 02:00:11;;;;;;;7.53;6.57;;;0.30;99.90;;;;;;5002066;28;20338;-58
2022/01/12 02:02:36;;;;;;;8.50;6.95;;;0.30;99.90;;;;;;5005893;28;20548;-58
2022/01/12 02:05:03;;;;;;;7.80;6.23;;;0.10;99.90;;;;;;5009826;28;20190;-58
2022/01/12 02:07:29;;;;;;;8.90;6.60;;;0.00;99.90;;;;;;5015665;28;20179;-57
2022/01/12 02:09:55;;;;;;;9.45;7.35;;;0.00;99.90;;;;;;5008581;28;20234;-58
2022/01/12 02:12:28;;;;;;;8.47;7.30;;;0.10;99.90;;;;;;5008855;28;20183;-58
2022/01/12 02:14:57;;;;;;;7.75;6.95;;;0.10;99.90;;;;;;5005100;28;20445;-60
2022/01/12 02:17:30;;;;;;;10.35;6.75;;;0.20;99.90;;;;;;5002347;28;20550;-57
2022/01/12 02:36:24;;;;;;;7.93;6.93;;;-0.80;99.90;;;;;;5010074;28;20712;-61
2022/01/12 02:41:34;;;;;;;7.68;5.65;;;-0.20;99.90;;;;;;5005183;28;20568;-58
2022/01/12 02:54:43;;;;;;;10.73;6.70;;;-0.60;99.90;;;;;;4994527;28;20212;-60
2022/01/12 02:57:09;;;;;;;8.00;6.63;;;-0.10;99.90;;;;;;5015281;28;20434;-60
2022/01/12 02:59:36;;;;;;;9.40;6.60;;;0.20;99.90;;;;;;5020122;28;20215;-59
2022/01/12 03:04:31;;;;;;;8.07;6.25;;;0.00;99.90;;;;;;5007429;28;20179;-58
2022/01/12 03:07:05;;;;;;;8.80;5.97;;;-0.10;99.90;;;;;;5009954;28;21190;-58
2022/01/12 03:09:31;;;;;;;9.00;6.60;;;-0.70;99.90;;;;;;5000779;28;20265;-60
2022/01/12 03:11:56;;;;;;;8.30;6.30;;;-0.30;99.90;;;;;;5008582;28;20634;-61
2022/01/12 03:14:22;;;;;;;8.60;6.53;;;-0.30;99.90;;;;;;5000769;28;20215;-61
2022/01/12 03:16:47;;;;;;;6.50;5.70;;;-0.20;99.90;;;;;;5009797;28;20191;-61
2022/01/12 03:19:13;;;;;;;9.10;5.90;;;-0.30;99.90;;;;;;5001060;28;20246;-58
2022/01/12 03:21:39;;;;;;;8.27;5.77;;;-0.10;99.90;;;;;;5007486;28;20664;-59
2022/01/12 03:24:05;;;;;;;8.33;6.60;;;-0.30;99.90;;;;;;4999410;28;20190;-60
2022/01/12 03:26:33;;;;;;;8.32;6.07;;;-0.50;99.90;;;;;;5016118;28;20185;-59
2022/01/12 03:28:59;;;;;;;7.90;5.85;;;-0.40;99.90;;;;;;5005167;28;20184;-60
2022/01/12 03:31:30;;;;;;;7.23;6.03;;;-1.10;99.90;;;;;;5006330;28;20203;-59
2022/01/12 03:34:05;;;;;;;8.07;6.47;;;-0.30;99.90;;;;;;5007602;28;20466;-60
2022/01/12 03:36:54;;;;;;;7.47;6.60;;;-0.30;99.90;;;;;;5010949;28;20183;-60
2022/01/12 03:39:21;;;;;;;7.18;6.07;;;-0.40;99.90;;;;;;5000235;28;20234;-61
2022/01/12 03:41:48;;;;;;;8.38;6.25;;;-0.80;99.90;;;;;;5000314;28;20664;-60
2022/01/12 03:44:14;;;;;;;8.60;7.13;;;-0.30;99.90;;;;;;5010244;28;20775;-60
2022/01/12 03:46:49;;;;;;;8.47;6.57;;;-0.10;99.90;;;;;;5005221;28;20273;-58
2022/01/12 03:49:16;;;;;;;9.00;6.20;;;-0.20;99.90;;;;;;5014544;28;20214;-57
2022/01/12 03:51:41;;;;;;;7.95;6.63;;;-0.40;99.90;;;;;;5010285;28;20182;-59
2022/01/12 03:54:07;;;;;;;7.80;7.00;;;-0.20;99.90;;;;;;5006600;28;20246;-60
2022/01/12 03:56:33;;;;;;;7.55;6.43;;;-0.10;99.90;;;;;;5005881;28;20183;-58
2022/01/12 03:58:59;;;;;;;8.17;7.10;;;0.10;99.90;;;;;;5002353;28;20186;-57
2022/01/12 04:01:25;;;;;;;7.65;6.40;;;-0.10;99.90;;;;;;4996266;28;20230;-57
2022/01/12 04:04:06;;;;;;;9.03;7.20;;;-0.10;99.90;;;;;;5002189;28;20746;-58
2022/01/12 04:09:17;;;;;;;12.48;7.07;;;-0.40;99.90;;;;;;4999614;28;20262;-57
2022/01/12 04:11:43;;;;;;;10.20;7.40;;;-0.40;99.90;;;;;;5010730;28;20190;-57
2022/01/12 04:14:09;;;;;;;10.33;7.37;;;-0.30;99.90;;;;;;5012562;28;20210;-58
2022/01/12 04:16:37;;;;;;;11.63;8.45;;;-0.30;99.90;;;;;;5004739;28;20206;-58
2022/01/12 04:19:04;;;;;;;11.25;7.90;;;-0.60;99.90;;;;;;5004892;28;20218;-58
2022/01/12 04:21:31;;;;;;;10.45;7.10;;;-0.40;99.90;;;;;;5007751;28;20190;-59
2022/01/12 04:23:58;;;;;;;10.70;7.68;;;-0.50;99.90;;;;;;5012155;28;20336;-57
2022/01/12 04:26:26;;;;;;;9.38;7.60;;;-0.60;99.90;;;;;;5007190;28;20255;-59
2022/01/12 04:28:52;;;;;;;9.45;7.25;;;-0.20;99.90;;;;;;5011107;28;20182;-58
2022/01/12 04:31:18;;;;;;;10.77;7.67;;;-0.30;99.90;;;;;;5002738;28;20227;-58
2022/01/12 04:33:44;;;;;;;9.60;7.20;;;-0.20;99.90;;;;;;5008437;28;20219;-58
2022/01/12 04:36:10;;;;;;;9.52;7.75;;;-0.30;99.90;;;;;;5012699;28;20556;-58
2022/01/12 04:38:38;;;;;;;10.77;7.37;;;-0.50;99.90;;;;;;5009043;28;20204;-58
2022/01/12 04:41:05;;;;;;;13.18;8.52;;;-0.40;99.90;;;;;;5003012;28;20596;-58
2022/01/12 04:43:32;;;;;;;11.65;8.98;;;-0.50;99.90;;;;;;5010378;28;20288;-58
2022/01/12 04:48:35;;;;;;;10.40;8.00;;;-0.80;99.90;;;;;;5018897;28;20202;-58
2022/01/12 04:51:01;;;;;;;11.63;8.88;;;-0.30;99.90;;;;;;5009263;28;20281;-57
2022/01/12 04:53:27;;;;;;;10.33;7.80;;;-0.50;99.90;;;;;;5014744;28;20764;-57
2022/01/12 04:55:53;;;;;;;9.77;8.15;;;-0.50;99.90;;;;;;5010366;28;20481;-58
2022/01/12 04:58:20;;;;;;;10.93;8.50;;;-1.20;99.90;;;;;;5001428;28;20190;-58
2022/01/12 05:00:47;;;;;;;9.55;7.72;;;-0.50;99.90;;;;;;5004615;28;20382;-58
2022/01/12 05:09:05;;;;;;;10.43;8.20;;;-0.50;99.90;;;;;;5012640;28;20178;-58
2022/01/12 05:14:15;;;;;;;11.98;8.73;;;-0.60;99.90;;;;;;5012187;28;20607;-58
2022/01/12 05:16:41;;;;;;;11.90;9.20;;;-1.40;99.90;;;;;;5005905;28;20187;-58
2022/01/12 05:19:06;;;;;;;9.30;8.10;;;-0.10;99.90;;;;;;5006190;28;20714;-58
2022/01/12 05:21:32;;;;;;;11.17;8.27;;;-0.70;99.90;;;;;;5007455;28;20190;-58
2022/01/12 05:24:01;;;;;;;12.60;9.73;;;-0.60;99.90;;;;;;5005292;28;20201;-58
2022/01/12 05:26:27;;;;;;;12.48;8.98;;;-0.60;99.90;;;;;;5012448;28;20187;-58
2022/01/12 05:28:52;;;;;;;11.33;9.10;;;-0.70;99.90;;;;;;4997134;28;20197;-58
2022/01/12 05:31:18;;;;;;;14.67;9.10;;;-0.90;99.90;;;;;;5009536;28;20198;-57
2022/01/12 05:33:47;;;;;;;12.50;8.50;;;-0.50;99.90;;;;;;4992702;28;20295;-58
2022/01/12 05:36:16;;;;;;;11.82;8.90;;;-0.60;99.90;;;;;;5002790;28;20387;-59
2022/01/12 05:38:41;;;;;;;12.57;9.10;;;-0.60;99.90;;;;;;5005591;28;20563;-58
2022/01/12 05:41:07;;;;;;;13.50;10.63;;;-0.40;99.90;;;;;;5011475;28;20198;-58
2022/01/12 05:43:35;;;;;;;10.70;8.50;;;-0.60;99.90;;;;;;5015855;28;20564;-59
2022/01/12 05:46:10;;;;;;;11.70;9.10;;;-0.80;99.90;;;;;;5003833;28;20452;-52
2022/01/12 05:51:29;;;;;;;11.07;8.30;;;-0.80;99.90;;;;;;5005396;28;20661;-52
2022/01/12 05:53:55;;;;;;;11.50;8.97;;;-0.40;99.90;;;;;;4999053;28;20215;-52
2022/01/12 05:56:21;;;;;;;12.40;9.60;;;-0.50;99.90;;;;;;5009156;28;20477;-52
2022/01/12 05:58:47;;;;;;;12.73;10.30;;;-0.90;99.90;;;;;;5013689;28;20202;-52
2022/01/12 06:01:13;;;;;;;10.75;8.52;;;-0.30;99.90;;;;;;5006289;28;20207;-52
2022/01/12 06:03:39;;;;;;;12.53;8.60;;;-0.40;99.90;;;;;;5012129;28;20282;-52
2022/01/12 06:06:04;;;;;;;11.70;8.50;;;-0.30;99.90;;;;;;5010737;28;20195;-52
2022/01/12 06:08:30;;;;;;;12.60;8.73;;;-0.60;99.90;;;;;;5014644;28;20637;-52
2022/01/12 06:10:56;;;;;;;11.00;9.83;;;-0.70;99.90;;;;;;5006937;28;20231;-52
2022/01/12 06:13:21;;;;;;;13.60;9.43;;;-0.70;99.90;;;;;;4997938;28;20215;-53
2022/01/12 06:15:47;;;;;;;14.03;10.60;;;-0.40;99.90;;;;;;5003262;28;20192;-53
2022/01/12 06:18:12;;;;;;;13.07;10.90;;;-0.40;99.90;;;;;;5014861;28;20262;-53
2022/01/12 06:20:38;;;;;;;12.83;10.03;;;-0.60;99.90;;;;;;5009902;28;20306;-53
2022/01/12 06:23:04;;;;;;;11.57;9.03;;;-0.60;99.90;;;;;;5013024;28;20621;-52
2022/01/12 06:25:30;;;;;;;13.73;10.63;;;-0.50;99.90;;;;;;4997097;28;20867;-52
2022/01/12 06:28:08;;;;;;;14.77;9.97;;;-0.80;99.90;;;;;;5007215;28;20195;-51
2022/01/12 06:33:18;;;;;;;16.85;10.50;;;-0.90;99.90;;;;;;5006612;28;20333;-52
2022/01/12 06:35:44;;;;;;;13.03;11.30;;;-1.30;99.90;;;;;;5008751;28;20556;-52
2022/01/12 06:38:10;;;;;;;15.80;10.90;;;-0.50;99.90;;;;;;5009154;28;20555;-53
2022/01/12 06:40:35;;;;;;;15.07;11.80;;;-0.90;99.90;;;;;;4998813;28;20583;-53
2022/01/12 06:43:02;;;;;;;16.57;11.67;;;-0.50;99.90;;;;;;5009705;28;20664;-53
2022/01/12 06:45:28;;;;;;;15.75;11.70;;;-0.50;99.90;;;;;;4996649;28;20237;-53
2022/01/12 06:47:53;;;;;;;14.80;11.53;;;-0.30;99.90;;;;;;5014270;28;20183;-54
2022/01/12 06:50:19;;;;;;;16.10;11.70;;;-0.50;99.90;;;;;;5009672;28;20524;-53
2022/01/12 06:52:46;;;;;;;15.03;11.40;;;-0.20;99.90;;;;;;5004035;28;20247;-53
2022/01/12 06:55:12;;;;;;;17.38;12.80;;;-0.20;99.90;;;;;;4997514;28;20176;-55
2022/01/12 06:57:38;;;;;;;15.48;12.05;;;0.00;99.90;;;;;;4997841;28;20194;-55
2022/01/12 07:00:06;;;;;;;17.60;12.97;;;-0.50;99.90;;;;;;5012325;28;20212;-56
2022/01/12 07:02:31;;;;;;;17.13;11.82;;;-0.40;99.90;;;;;;4996762;28;22699;-53
2022/01/12 07:04:57;;;;;;;19.00;13.17;;;-1.10;99.90;;;;;;5008901;28;20187;-53
2022/01/12 07:07:23;;;;;;;15.57;11.87;;;-0.40;99.90;;;;;;5003706;28;20203;-56
2022/01/12 07:09:50;;;;;;;16.60;12.27;;;-0.40;99.90;;;;;;5018782;28;20264;-54
2022/01/12 07:12:16;;;;;;;15.57;11.50;;;-0.70;99.90;;;;;;5012446;28;20244;-55
2022/01/12 07:14:42;;;;;;;18.50;13.85;;;-0.40;99.90;;;;;;5002268;28;20205;-59
2022/01/12 07:17:10;;;;;;;15.57;12.83;;;-0.40;99.90;;;;;;5011833;28;20190;-54
2022/01/12 07:19:36;;;;;;;14.23;11.85;;;-1.20;99.90;;;;;;5015965;28;20462;-54
2022/01/12 07:22:01;;;;;;;19.08;13.18;;;0.00;99.90;;;;;;5016447;28;20185;-55
2022/01/12 07:24:27;;;;;;;19.70;12.77;;;-0.30;99.90;;;;;;5000641;28;20188;-55
2022/01/12 07:26:53;;;;;;;15.93;12.87;;;-0.90;99.90;;;;;;5011423;28;20190;-56
2022/01/12 07:29:18;;;;;;;17.13;12.67;;;-0.30;99.90;;;;;;4997968;28;20222;-57
2022/01/12 07:31:46;;;;;;;17.37;12.80;;;-0.30;99.90;;;;;;5007988;28;20476;-55
2022/01/12 07:34:14;;;;;;;23.25;13.73;;;-0.10;99.90;;;;;;5009718;28;20213;-54
2022/01/12 07:36:40;;;;;;;18.88;13.60;;;0.10;99.90;;;;;;4997225;28;20730;-55
2022/01/12 07:39:06;;;;;;;18.02;12.82;;;-0.20;99.90;;;;;;5003328;28;20180;-55
2022/01/12 07:41:32;;;;;;;17.43;13.80;;;0.10;99.90;;;;;;5004579;28;20255;-55
2022/01/12 07:43:57;;;;;;;18.47;13.80;;;0.00;99.90;;;;;;5005698;28;20183;-55
2022/01/12 07:46:23;;;;;;;16.63;13.13;;;-0.10;99.90;;;;;;4990976;28;20180;-56
2022/01/12 07:48:49;;;;;;;19.83;14.47;;;-0.60;99.90;;;;;;5002979;28;20195;-56
2022/01/12 07:51:14;;;;;;;18.10;12.50;;;0.10;99.90;;;;;;5008075;28;20330;-57
2022/01/12 07:53:40;;;;;;;16.13;12.90;;;0.10;99.90;;;;;;5011562;28;20245;-56
2022/01/12 07:56:06;;;;;;;18.17;13.13;;;0.10;99.90;;;;;;4995979;28;20195;-56
2022/01/12 07:58:32;;;;;;;16.58;13.70;;;0.40;99.90;;;;;;5005695;28;20585;-57
2022/01/12 08:00:57;;;;;;;18.08;13.27;;;0.30;99.90;;;;;;4999106;28;20219;-55
2022/01/12 08:03:23;;;;;;;17.10;13.10;;;0.50;99.90;;;;;;5012693;28;20198;-55
2022/01/12 08:05:50;;;;;;;17.37;13.40;;;0.30;99.90;;;;;;5005245;28;20604;-54
2022/01/12 08:08:16;;;;;;;16.50;13.57;;;0.60;99.90;;;;;;5002059;28;20302;-54
2022/01/12 08:10:42;;;;;;;18.43;14.23;;;0.50;99.90;;;;;;4994847;28;20762;-55
2022/01/12 08:13:08;;;;;;;17.80;13.43;;;0.60;99.90;;;;;;5007478;28;20462;-52
2022/01/12 08:15:34;;;;;;;16.10;13.13;;;1.20;99.90;;;;;;5007145;28;20191;-56
2022/01/12 08:17:59;;;;;;;14.40;12.90;;;0.70;99.90;;;;;;5007303;28;20266;-54
2022/01/12 08:20:28;;;;;;;16.27;12.50;;;0.90;99.90;;;;;;5007389;28;20969;-55
2022/01/12 08:22:55;;;;;;;18.13;13.20;;;0.80;99.90;;;;;;5002123;28;20540;-52
2022/01/12 08:25:20;;;;;;;17.42;14.25;;;0.70;99.90;;;;;;5007539;28;20660;-53
2022/01/12 08:27:46;;;;;;;17.73;13.80;;;0.40;99.90;;;;;;5010008;28;20226;-53
2022/01/12 08:30:17;;;;;;;21.17;14.40;;;1.10;99.90;;;;;;5001291;28;20551;-53
2022/01/12 08:32:45;;;;;;;19.38;15.63;;;0.90;99.90;;;;;;5008734;28;20564;-52
2022/01/12 08:35:11;;;;;;;15.65;12.50;;;0.70;99.90;;;;;;5002595;28;20190;-53
2022/01/12 08:37:37;;;;;;;17.30;13.60;;;1.00;99.90;;;;;;5008940;28;20265;-53
2022/01/12 08:40:03;;;;;;;17.00;13.27;;;1.40;99.90;;;;;;5012140;28;20632;-53
2022/01/12 08:42:29;;;;;;;18.25;13.52;;;1.40;99.90;;;;;;5010668;28;20437;-53
2022/01/12 08:44:59;;;;;;;14.60;12.40;;;1.40;99.90;;;;;;5007424;28;20726;-55
2022/01/12 08:47:28;;;;;;;17.50;14.27;;;1.50;99.90;;;;;;5007188;28;20270;-54
2022/01/12 08:49:54;;;;;;;16.88;12.75;;;0.80;99.90;;;;;;5007270;28;20229;-54
2022/01/12 08:52:22;;;;;;;20.30;14.10;;;0.60;99.90;;;;;;4998857;28;20703;-56
2022/01/12 08:54:48;;;;;;;18.75;13.93;;;1.30;99.90;;;;;;5004695;28;20207;-55
2022/01/12 08:57:14;;;;;;;18.67;13.90;;;1.10;99.90;;;;;;5009664;28;20191;-56
2022/01/12 08:59:39;;;;;;;18.40;13.50;;;0.90;99.90;;;;;;4998573;28;20227;-55
2022/01/12 09:02:06;;;;;;;19.97;13.60;;;1.10;99.90;;;;;;4997659;28;20195;-54
2022/01/12 09:04:33;;;;;;;16.75;12.32;;;0.70;99.90;;;;;;5000804;28;20190;-56
2022/01/12 09:06:59;;;;;;;14.27;12.73;;;1.10;99.90;;;;;;4999877;28;20218;-55
2022/01/12 09:09:25;;;;;;;15.70;12.97;;;1.20;99.90;;;;;;5001236;28;20207;-54
2022/01/12 09:11:51;;;;;;;14.68;13.10;;;1.40;99.90;;;;;;5005623;28;20191;-53
2022/01/12 09:14:18;;;;;;;30.85;22.10;;;1.10;99.90;;;;;;5002348;28;20207;-54
2022/01/12 09:16:44;;;;;;;15.48;12.95;;;1.20;99.90;;;;;;5005684;28;20187;-54
2022/01/12 09:19:12;;;;;;;14.80;12.18;;;1.50;99.90;;;;;;5005052;28;20198;-54
2022/01/12 09:21:38;;;;;;;13.93;12.27;;;1.50;99.90;;;;;;5004792;28;20199;-54
2022/01/12 09:24:04;;;;;;;17.00;13.30;;;1.50;99.90;;;;;;5001583;28;20195;-54
2022/01/12 09:26:29;;;;;;;14.05;11.93;;;1.70;99.90;;;;;;5000307;28;20187;-54
2022/01/12 09:28:55;;;;;;;13.63;10.90;;;2.40;99.90;;;;;;5005006;28;20199;-53
2022/01/12 09:31:20;;;;;;;13.70;11.83;;;3.20;99.90;;;;;;5002466;28;20322;-55
2022/01/12 09:33:49;;;;;;;13.50;11.10;;;3.30;99.90;;;;;;5010201;28;20212;-55
2022/01/12 09:36:15;;;;;;;15.38;11.75;;;3.90;99.90;;;;;;5015834;28;20258;-56
2022/01/12 09:38:40;;;;;;;13.20;11.73;;;4.20;99.90;;;;;;5008408;28;20217;-55
2022/01/12 09:41:06;;;;;;;13.30;11.63;;;5.10;99.90;;;;;;5006472;28;20671;-55
2022/01/12 09:43:34;;;;;;;12.20;10.90;;;6.20;97.30;;;;;;5003432;28;20191;-56
2022/01/12 09:46:01;;;;;;;12.13;10.82;;;6.80;95.10;;;;;;5009190;28;20659;-56
2022/01/12 09:48:33;;;;;;;12.10;10.77;;;6.80;93.80;;;;;;5022611;28;20174;-56
2022/01/12 09:51:01;;;;;;;11.18;9.95;;;7.00;93.50;;;;;;5012723;28;20217;-55
2022/01/12 09:53:28;;;;;;;12.23;10.40;;;7.10;92.20;;;;;;5017036;28;20214;-55
2022/01/12 09:55:54;;;;;;;11.55;10.30;;;6.40;92.40;;;;;;5003690;28;20680;-57
2022/01/12 09:58:20;;;;;;;11.13;9.93;;;6.80;92.10;;;;;;5012433;28;20189;-59
2022/01/12 10:01:00;;;;;;;10.03;9.00;;;7.90;91.40;;;;;;5003372;28;20483;-58
2022/01/12 10:03:27;;;;;;;13.10;9.75;;;8.10;86.90;;;;;;5013565;28;20555;-56
2022/01/12 10:05:53;;;;;;;10.90;9.35;;;7.40;87.40;;;;;;5005291;28;20786;-55
2022/01/12 10:08:19;;;;;;;11.68;10.52;;;7.00;89.10;;;;;;5015621;28;20285;-52
2022/01/12 10:11:06;;;;;;;9.97;8.97;;;6.80;90.00;;;;;;5004273;28;20290;-54
2022/01/12 10:13:32;;;;;;;13.85;10.15;;;6.20;90.90;;;;;;5013741;28;20468;-54
2022/01/12 10:16:14;;;;;;;10.38;9.27;;;6.60;91.00;;;;;;4995161;28;20278;-54
2022/01/12 10:18:45;;;;;;;10.73;9.25;;;7.20;91.00;;;;;;4998446;28;20191;-56
2022/01/12 10:21:10;;;;;;;13.20;10.60;;;7.00;89.90;;;;;;5009481;28;20214;-56
2022/01/12 10:23:39;;;;;;;10.70;9.60;;;6.40;90.10;;;;;;5010960;28;20187;-55
2022/01/12 10:26:04;;;;;;;12.93;10.70;;;5.40;91.20;;;;;;4998244;28;20633;-55
2022/01/12 10:28:30;;;;;;;12.10;10.30;;;5.60;92.50;;;;;;5006443;28;20275;-56
2022/01/12 10:30:58;;;;;;;11.73;10.30;;;5.60;92.60;;;;;;5005913;28;20234;-56
2022/01/12 10:33:26;;;;;;;11.15;9.95;;;5.80;92.60;;;;;;5010898;28;20700;-54
2022/01/12 10:36:02;;;;;;;18.52;10.75;;;6.20;92.30;;;;;;5013324;28;20187;-55
2022/01/12 10:38:28;;;;;;;11.07;9.88;;;5.60;91.40;;;;;;5004199;28;20189;-55
2022/01/12 10:41:03;;;;;;;15.23;10.73;;;6.80;91.10;;;;;;5001997;28;20567;-54
2022/01/12 10:43:39;;;;;;;10.80;9.60;;;6.60;90.90;;;;;;5016587;28;20190;-55
2022/01/12 10:46:11;;;;;;;8.85;7.95;;;6.80;90.60;;;;;;4991455;28;20287;-55
2022/01/12 10:48:55;;;;;;;10.15;9.05;;;6.80;89.60;;;;;;5004405;28;20191;-54
2022/01/12 10:51:22;;;;;;;9.32;8.43;;;6.70;88.30;;;;;;5020174;28;20186;-54
2022/01/12 10:53:50;;;;;;;9.80;8.80;;;6.10;89.50;;;;;;5010255;28;20413;-55
2022/01/12 10:56:21;;;;;;;10.02;8.35;;;6.90;90.40;;;;;;4993917;28;20188;-55
2022/01/12 10:58:49;;;;;;;11.02;9.88;;;8.00;86.80;;;;;;5017665;28;20281;-54
2022/01/12 11:01:18;;;;;;;11.05;9.95;;;8.70;83.90;;;;;;4994699;28;20692;-54
2022/01/12 11:03:45;;;;;;;10.73;9.63;;;8.70;82.30;;;;;;5005588;28;20267;-54
2022/01/12 11:06:11;;;;;;;12.02;10.82;;;8.60;82.60;;;;;;5016249;28;20191;-54
2022/01/12 11:08:39;;;;;;;10.57;9.50;;;8.80;82.30;;;;;;5004866;28;20238;-54
2022/01/12 11:11:06;;;;;;;12.40;11.07;;;8.40;83.70;;;;;;5003344;28;20648;-54
2022/01/12 11:13:33;;;;;;;11.18;9.95;;;8.00;85.30;;;;;;5008792;28;20219;-54
2022/01/12 11:15:59;;;;;;;11.63;10.15;;;7.10;85.80;;;;;;5001976;28;20687;-54
2022/01/12 11:18:27;;;;;;;13.18;11.88;;;7.70;87.10;;;;;;5006857;28;20186;-54
2022/01/12 11:20:59;;;;;;;13.02;11.10;;;7.60;85.80;;;;;;5008479;28;20229;-54
2022/01/12 11:23:39;;;;;;;11.38;10.27;;;6.90;87.00;;;;;;4998378;28;20186;-55
2022/01/12 11:26:32;;;;;;;13.15;10.70;;;7.00;87.80;;;;;;4996358;28;20234;-54
2022/01/12 11:28:59;;;;;;;14.10;10.38;;;7.40;89.10;;;;;;5010052;28;20202;-54
2022/01/12 11:31:34;;;;;;;12.02;10.75;;;7.00;88.20;;;;;;4997110;28;20278;-54
2022/01/12 11:34:00;;;;;;;11.82;10.05;;;7.40;87.80;;;;;;5010869;28;20203;-55
2022/01/12 11:36:37;;;;;;;12.38;10.48;;;7.10;87.70;;;;;;5003068;28;20188;-54
2022/01/12 11:39:04;;;;;;;12.15;10.85;;;7.70;87.90;;;;;;4994742;28;20179;-54
2022/01/12 11:41:32;;;;;;;10.80;9.70;;;7.80;85.70;;;;;;5018912;28;20189;-54
2022/01/12 11:44:01;;;;;;;11.25;10.15;;;7.90;85.50;;;;;;5001162;28;20195;-54
2022/01/12 11:46:39;;;;;;;14.00;10.23;;;7.10;85.30;;;;;;5006607;28;20182;-53
2022/01/12 11:49:05;;;;;;;12.98;10.07;;;6.90;86.80;;;;;;5005276;28;20191;-53
2022/01/12 11:51:35;;;;;;;10.80;8.30;;;7.20;86.50;;;;;;5010857;28;20782;-52
2022/01/12 11:54:06;;;;;;;13.65;9.30;;;7.10;88.20;;;;;;5013440;28;20214;-58
2022/01/12 11:56:32;;;;;;;12.38;9.65;;;6.40;88.80;;;;;;5010808;28;20174;-55
2022/01/12 11:59:05;;;;;;;12.07;10.87;;;6.70;89.50;;;;;;5023014;28;20179;-55
2022/01/12 12:02:06;;;;;;;12.85;9.63;;;6.30;88.70;;;;;;5005001;28;20194;-54
2022/01/12 12:04:32;;;;;;;11.90;10.38;;;5.50;90.60;;;;;;4989225;28;20195;-56
2022/01/12 12:07:13;;;;;;;15.55;10.68;;;6.10;91.00;;;;;;5007455;28;20245;-55
2022/01/12 12:09:43;;;;;;;12.07;9.52;;;5.60;91.50;;;;;;5002404;28;20209;-55
2022/01/12 12:12:11;;;;;;;13.50;10.90;;;5.80;91.70;;;;;;5005241;28;20178;-54
2022/01/12 12:14:37;;;;;;;8.70;7.80;;;5.40;91.00;;;;;;5006758;28;20312;-54
2022/01/12 12:17:03;;;;;;;9.53;8.57;;;5.80;90.70;;;;;;4996997;28;20206;-54
2022/01/12 12:19:33;;;;;;;11.23;8.30;;;5.70;90.90;;;;;;5006346;28;20683;-53
2022/01/12 12:21:58;;;;;;;9.65;8.15;;;5.60;91.10;;;;;;5011287;28;20186;-53
2022/01/12 12:24:24;;;;;;;11.63;8.37;;;5.70;90.70;;;;;;4995204;28;20206;-54
2022/01/12 12:26:54;;;;;;;9.43;7.73;;;5.70;90.60;;;;;;5006073;28;20338;-54
2022/01/12 12:29:27;;;;;;;13.75;8.48;;;5.90;90.70;;;;;;4999590;28;20475;-53
2022/01/12 12:31:56;;;;;;;10.77;9.02;;;5.40;91.00;;;;;;5008470;28;20225;-53
2022/01/12 12:34:24;;;;;;;13.50;10.07;;;5.30;91.40;;;;;;5015668;28;20208;-54
2022/01/12 12:37:08;;;;;;;10.73;8.90;;;5.40;91.70;;;;;;5001043;28;20190;-53
2022/01/12 12:39:37;;;;;;;13.32;10.70;;;5.40;91.90;;;;;;5001114;28;20211;-53
2022/01/12 12:42:04;;;;;;;11.32;8.95;;;5.10;91.90;;;;;;4998983;28;20194;-52
2022/01/12 12:44:32;;;;;;;11.35;9.32;;;5.30;92.00;;;;;;5012326;28;20193;-55
2022/01/12 12:47:08;;;;;;;11.43;9.60;;;5.30;92.30;;;;;;5008263;28;20189;-56
2022/01/12 12:49:51;;;;;;;14.02;10.32;;;4.80;92.40;;;;;;5005604;28;20338;-53
2022/01/12 12:52:26;;;;;;;12.95;10.90;;;4.50;92.90;;;;;;5007151;28;20200;-53
2022/01/12 12:54:52;;;;;;;15.57;10.93;;;5.00;93.90;;;;;;4999271;28;20817;-54
2022/01/12 12:57:21;;;;;;;11.63;9.95;;;4.80;93.80;;;;;;5005866;28;20199;-53
2022/01/12 13:00:07;;;;;;;12.98;10.68;;;5.00;93.60;;;;;;5004403;28;20278;-53
2022/01/12 13:02:47;;;;;;;12.15;10.57;;;4.50;93.50;;;;;;5010261;28;20641;-54
2022/01/12 13:05:28;;;;;;;12.00;10.50;;;4.80;93.90;;;;;;5007435;28;20552;-53
2022/01/12 13:07:54;;;;;;;19.83;11.77;;;4.70;93.10;;;;;;5004175;28;20231;-53
2022/01/12 13:10:23;;;;;;;11.63;10.38;;;4.60;93.40;;;;;;5010489;28;20201;-54
2022/01/12 13:12:51;;;;;;;13.23;11.13;;;4.90;93.80;;;;;;5018594;28;20190;-54
2022/01/12 13:15:41;;;;;;;17.05;12.35;;;4.90;93.70;;;;;;5004229;28;20600;-54
2022/01/12 13:18:10;;;;;;;17.15;13.23;;;4.80;93.30;;;;;;5000950;28;20193;-55
2022/01/12 13:23:26;;;;;;;14.07;11.82;;;4.90;93.90;;;;;;5012408;28;20195;-55
2022/01/12 13:25:57;;;;;;;14.13;11.60;;;4.60;93.80;;;;;;5003422;28;20229;-54
2022/01/12 13:28:23;;;;;;;13.63;10.55;;;4.80;94.20;;;;;;5017314;28;20192;-54
2022/01/12 13:30:52;;;;;;;14.43;11.18;;;5.10;94.30;;;;;;4996526;28;20242;-52
2022/01/12 13:33:42;;;;;;;16.88;11.85;;;4.80;94.30;;;;;;5005246;28;20252;-55
2022/01/12 13:36:18;;;;;;;12.93;10.68;;;4.50;94.00;;;;;;5004393;28;20276;-54
2022/01/12 13:38:48;;;;;;;11.13;10.02;;;4.80;94.40;;;;;;5008079;28;20189;-55
2022/01/12 13:41:22;;;;;;;15.10;10.27;;;4.40;93.70;;;;;;5005320;28;20211;-55
2022/01/12 13:43:54;;;;;;;13.18;10.18;;;4.60;93.80;;;;;;5025217;28;20286;-55
2022/01/12 13:46:29;;;;;;;13.68;10.52;;;4.60;93.80;;;;;;4996676;28;20300;-55
2022/01/12 13:51:37;;;;;;;13.65;11.07;;;3.90;94.80;;;;;;5014619;28;20269;-55
2022/01/12 13:54:12;;;;;;;14.13;10.10;;;4.60;95.30;;;;;;5005116;28;20739;-54
2022/01/12 13:56:44;;;;;;;12.32;9.80;;;4.40;94.60;;;;;;5012686;28;20186;-54
2022/01/12 13:59:12;;;;;;;12.95;9.80;;;4.30;94.70;;;;;;5004345;28;20184;-54
2022/01/12 14:01:41;;;;;;;11.18;9.75;;;4.60;94.70;;;;;;5000492;28;20646;-54
2022/01/12 14:04:11;;;;;;;15.40;10.95;;;4.20;95.10;;;;;;5007779;28;20650;-54
2022/01/12 14:06:40;;;;;;;15.70;12.05;;;4.20;95.30;;;;;;5010117;28;20188;-56
2022/01/12 14:09:42;;;;;;;14.73;10.60;;;4.50;95.70;;;;;;5008425;28;20572;-54
2022/01/12 14:12:19;;;;;;;13.52;11.68;;;4.30;95.60;;;;;;5003494;28;20187;-54
2022/01/12 14:14:46;;;;;;;15.68;11.05;;;4.50;95.40;;;;;;5005292;28;20216;-55